sensor_id;sensor_type;location;lat;lon;timestamp;temperature;humidity
21698;DHT22;11010;49.548;11.926;2023-05-10T00:00:55;16.60;99.90
21698;DHT22;11010;49.548;11.926;2023-05-10T00:03:22;16.60;99.90
21698;DHT22;11010;49.548;11.926;2023-05-10T00:05:50;16.40;99.90
21698;DHT22;11010;49.548;11.926;2023-05-10T00:08:17;16.40;99.90
21698;DHT22;11010;49.548;11.926;2023-05-10T00:10:44;16.30;99.90
21698;DHT22;11010;49.548;11.926;2023-05-10T00:13:11;16.30;99.90
21698;DHT22;11010;49.548;11.926;2023-05-10T00:15:38;16.20;99.90
21698;DHT22;11010;49.548;11.926;2023-05-10T00:18:05;16.50;99.90
21698;DHT22;11010;49.548;11.926;2023-05-10T00:20:33;16.30;99.90
21698;DHT22;11010;49.548;11.926;2023-05-10T00:23:00;16.50;99.90
21698;DHT22;11010;49.548;11.926;2023-05-10T00:25:27;16.60;99.90
21698;DHT22;11010;49.548;11.926;2023-05-10T00:27:54;16.40;99.90
21698;DHT22;11010;49.548;11.926;2023-05-10T00:30:24;16.40;99.90
21698;DHT22;11010;49.548;11.926;2023-05-10T00:32:51;16.10;99.90
21698;DHT22;11010;49.548;11.926;2023-05-10T00:35:18;16.20;99.90
21698;DHT22;11010;49.548;11.926;2023-05-10T00:37:47;16.40;99.90
21698;DHT22;11010;49.548;11.926;2023-05-10T00:40:14;16.20;99.90
21698;DHT22;11010;49.548;11.926;2023-05-10T00:42:46;16.30;99.90
21698;DHT22;11010;49.548;11.926;2023-05-10T00:45:13;16.30;99.90
21698;DHT22;11010;49.548;11.926;2023-05-10T00:47:40;16.20;99.90
21698;DHT22;11010;49.548;11.926;2023-05-10T00:50:08;16.10;99.90
21698;DHT22;11010;49.548;11.926;2023-05-10T00:52:36;16.30;99.90
21698;DHT22;11010;49.548;11.926;2023-05-10T00:55:03;16.30;99.90
21698;DHT22;11010;49.548;11.926;2023-05-10T00:57:31;16.20;99.90
21698;DHT22;11010;49.548;11.926;2023-05-10T00:59:59;16.00;99.90
21698;DHT22;11010;49.548;11.926;2023-05-10T01:02:26;16.10;99.90
21698;DHT22;11010;49.548;11.926;2023-05-10T01:04:56;16.20;99.90
21698;DHT22;11010;49.548;11.926;2023-05-10T01:07:23;16.00;99.90
21698;DHT22;11010;49.548;11.926;2023-05-10T01:09:50;16.00;99.90
21698;DHT22;11010;49.548;11.926;2023-05-10T01:12:17;15.90;99.90
21698;DHT22;11010;49.548;11.926;2023-05-10T01:14:44;16.10;99.90
21698;DHT22;11010;49.548;11.926;2023-05-10T01:17:12;16.10;99.90
21698;DHT22;11010;49.548;11.926;2023-05-10T01:19:41;16.00;99.90
21698;DHT22;11010;49.548;11.926;2023-05-10T01:25:10;16.00;99.90
21698;DHT22;11010;49.548;11.926;2023-05-10T01:33:56;15.80;99.90
21698;DHT22;11010;49.548;11.926;2023-05-10T01:36:35;15.80;99.90
21698;DHT22;11010;49.548;11.926;2023-05-10T01:41:57;15.90;99.90
21698;DHT22;11010;49.548;11.926;2023-05-10T01:47:32;15.90;99.90
21698;DHT22;11010;49.548;11.926;2023-05-10T01:50:05;15.90;99.90
21698;DHT22;11010;49.548;11.926;2023-05-10T01:52:37;15.90;99.90
21698;DHT22;11010;49.548;11.926;2023-05-10T01:55:08;15.80;99.90
21698;DHT22;11010;49.548;11.926;2023-05-10T01:57:37;15.90;99.90
21698;DHT22;11010;49.548;11.926;2023-05-10T02:00:08;15.80;99.90
21698;DHT22;11010;49.548;11.926;2023-05-10T02:02:46;15.90;99.90
21698;DHT22;11010;49.548;11.926;2023-05-10T02:05:15;15.70;99.90
21698;DHT22;11010;49.548;11.926;2023-05-10T02:07:43;15.80;99.90
21698;DHT22;11010;49.548;11.926;2023-05-10T02:10:12;15.80;99.90
21698;DHT22;11010;49.548;11.926;2023-05-10T02:12:45;15.80;99.90
21698;DHT22;11010;49.548;11.926;2023-05-10T02:15:19;15.80;99.90
21698;DHT22;11010;49.548;11.926;2023-05-10T02:17:47;15.80;99.90
21698;DHT22;11010;49.548;11.926;2023-05-10T02:20:16;15.80;99.90
21698;DHT22;11010;49.548;11.926;2023-05-10T02:22:48;15.70;99.90
21698;DHT22;11010;49.548;11.926;2023-05-10T02:25:16;15.70;99.90
21698;DHT22;11010;49.548;11.926;2023-05-10T02:27:44;15.70;99.90
21698;DHT22;11010;49.548;11.926;2023-05-10T02:30:13;15.80;99.90
21698;DHT22;11010;49.548;11.926;2023-05-10T02:32:41;15.80;99.90
21698;DHT22;11010;49.548;11.926;2023-05-10T02:35:09;15.70;99.90
21698;DHT22;11010;49.548;11.926;2023-05-10T02:37:38;15.70;99.90
21698;DHT22;11010;49.548;11.926;2023-05-10T02:40:07;15.70;99.90
21698;DHT22;11010;49.548;11.926;2023-05-10T02:42:37;15.70;99.90
21698;DHT22;11010;49.548;11.926;2023-05-10T02:45:10;15.60;99.90
21698;DHT22;11010;49.548;11.926;2023-05-10T02:47:38;15.60;99.90
21698;DHT22;11010;49.548;11.926;2023-05-10T02:50:06;15.60;99.90
21698;DHT22;11010;49.548;11.926;2023-05-10T02:52:43;15.60;99.90
21698;DHT22;11010;49.548;11.926;2023-05-10T02:55:14;15.40;99.90
21698;DHT22;11010;49.548;11.926;2023-05-10T02:57:57;15.60;99.90
21698;DHT22;11010;49.548;11.926;2023-05-10T03:00:25;15.50;99.90
21698;DHT22;11010;49.548;11.926;2023-05-10T03:02:53;15.50;99.90
21698;DHT22;11010;49.548;11.926;2023-05-10T03:05:20;15.60;99.90
21698;DHT22;11010;49.548;11.926;2023-05-10T03:07:48;15.70;99.90
21698;DHT22;11010;49.548;11.926;2023-05-10T03:10:15;15.60;99.90
21698;DHT22;11010;49.548;11.926;2023-05-10T03:15:51;15.60;99.90
21698;DHT22;11010;49.548;11.926;2023-05-10T03:18:29;15.40;99.90
21698;DHT22;11010;49.548;11.926;2023-05-10T03:21:06;15.60;99.90
21698;DHT22;11010;49.548;11.926;2023-05-10T03:23:44;15.50;99.90
21698;DHT22;11010;49.548;11.926;2023-05-10T03:26:32;15.50;99.90
21698;DHT22;11010;49.548;11.926;2023-05-10T03:29:08;15.50;99.90
21698;DHT22;11010;49.548;11.926;2023-05-10T03:31:35;15.50;99.90
21698;DHT22;11010;49.548;11.926;2023-05-10T03:34:03;15.40;99.90
21698;DHT22;11010;49.548;11.926;2023-05-10T03:36:30;15.50;99.90
21698;DHT22;11010;49.548;11.926;2023-05-10T03:38:58;15.50;99.90
21698;DHT22;11010;49.548;11.926;2023-05-10T03:41:26;15.50;99.90
21698;DHT22;11010;49.548;11.926;2023-05-10T03:43:53;15.40;99.90
21698;DHT22;11010;49.548;11.926;2023-05-10T03:46:21;15.40;99.90
21698;DHT22;11010;49.548;11.926;2023-05-10T03:48:49;15.30;99.90
21698;DHT22;11010;49.548;11.926;2023-05-10T03:51:17;15.20;99.90
21698;DHT22;11010;49.548;11.926;2023-05-10T03:53:44;15.20;99.90
21698;DHT22;11010;49.548;11.926;2023-05-10T03:56:12;15.00;99.90
21698;DHT22;11010;49.548;11.926;2023-05-10T03:58:39;15.00;99.90
21698;DHT22;11010;49.548;11.926;2023-05-10T04:01:06;14.90;99.90
21698;DHT22;11010;49.548;11.926;2023-05-10T04:03:33;15.00;99.90
21698;DHT22;11010;49.548;11.926;2023-05-10T04:06:02;14.90;99.90
21698;DHT22;11010;49.548;11.926;2023-05-10T04:08:30;14.60;99.90
21698;DHT22;11010;49.548;11.926;2023-05-10T04:11:07;14.80;99.90
21698;DHT22;11010;49.548;11.926;2023-05-10T04:13:35;14.70;99.90
21698;DHT22;11010;49.548;11.926;2023-05-10T04:16:02;14.70;99.90
21698;DHT22;11010;49.548;11.926;2023-05-10T04:18:30;14.80;99.90
21698;DHT22;11010;49.548;11.926;2023-05-10T04:20:57;14.90;99.90
21698;DHT22;11010;49.548;11.926;2023-05-10T04:23:24;14.80;99.90
21698;DHT22;11010;49.548;11.926;2023-05-10T04:25:51;14.90;99.90
21698;DHT22;11010;49.548;11.926;2023-05-10T04:28:18;15.00;99.90
21698;DHT22;11010;49.548;11.926;2023-05-10T04:30:45;14.90;99.90
21698;DHT22;11010;49.548;11.926;2023-05-10T04:33:13;14.80;99.90
21698;DHT22;11010;49.548;11.926;2023-05-10T04:35:41;14.40;99.90
21698;DHT22;11010;49.548;11.926;2023-05-10T04:38:08;14.30;99.90
21698;DHT22;11010;49.548;11.926;2023-05-10T04:40:35;14.40;99.90
21698;DHT22;11010;49.548;11.926;2023-05-10T04:43:02;14.60;99.90
21698;DHT22;11010;49.548;11.926;2023-05-10T04:45:29;14.60;99.90
21698;DHT22;11010;49.548;11.926;2023-05-10T04:47:56;14.70;99.90
21698;DHT22;11010;49.548;11.926;2023-05-10T04:50:23;14.70;99.90
21698;DHT22;11010;49.548;11.926;2023-05-10T04:52:51;14.70;99.90
21698;DHT22;11010;49.548;11.926;2023-05-10T04:55:19;14.80;99.90
21698;DHT22;11010;49.548;11.926;2023-05-10T04:57:46;14.70;99.90
21698;DHT22;11010;49.548;11.926;2023-05-10T05:00:13;14.70;99.90
21698;DHT22;11010;49.548;11.926;2023-05-10T05:02:44;14.80;99.90
21698;DHT22;11010;49.548;11.926;2023-05-10T05:05:14;14.70;99.90
21698;DHT22;11010;49.548;11.926;2023-05-10T05:07:42;14.70;99.90
21698;DHT22;11010;49.548;11.926;2023-05-10T05:10:09;14.60;99.90
21698;DHT22;11010;49.548;11.926;2023-05-10T05:12:36;14.00;99.90
21698;DHT22;11010;49.548;11.926;2023-05-10T05:15:03;13.60;99.90
21698;DHT22;11010;49.548;11.926;2023-05-10T05:17:32;13.90;99.90
21698;DHT22;11010;49.548;11.926;2023-05-10T05:20:00;14.30;99.90
21698;DHT22;11010;49.548;11.926;2023-05-10T05:22:27;14.30;99.90
21698;DHT22;11010;49.548;11.926;2023-05-10T05:24:55;14.40;99.90
21698;DHT22;11010;49.548;11.926;2023-05-10T05:27:22;14.00;99.90
21698;DHT22;11010;49.548;11.926;2023-05-10T05:29:55;14.00;99.90
21698;DHT22;11010;49.548;11.926;2023-05-10T05:32:23;14.30;99.90
21698;DHT22;11010;49.548;11.926;2023-05-10T05:34:51;14.30;99.90
21698;DHT22;11010;49.548;11.926;2023-05-10T05:37:19;14.30;99.90
21698;DHT22;11010;49.548;11.926;2023-05-10T05:39:48;14.40;99.90
21698;DHT22;11010;49.548;11.926;2023-05-10T05:42:15;14.30;99.90
21698;DHT22;11010;49.548;11.926;2023-05-10T05:44:44;14.20;99.90
21698;DHT22;11010;49.548;11.926;2023-05-10T05:47:11;14.40;99.90
21698;DHT22;11010;49.548;11.926;2023-05-10T05:49:38;14.30;99.90
21698;DHT22;11010;49.548;11.926;2023-05-10T05:52:06;14.20;99.90
21698;DHT22;11010;49.548;11.926;2023-05-10T05:54:33;14.20;99.90
21698;DHT22;11010;49.548;11.926;2023-05-10T05:57:00;14.20;99.90
21698;DHT22;11010;49.548;11.926;2023-05-10T05:59:28;14.30;99.90
21698;DHT22;11010;49.548;11.926;2023-05-10T06:01:55;14.20;99.90
21698;DHT22;11010;49.548;11.926;2023-05-10T06:04:22;14.40;99.90
21698;DHT22;11010;49.548;11.926;2023-05-10T06:06:49;14.40;99.90
21698;DHT22;11010;49.548;11.926;2023-05-10T06:09:16;14.50;99.90
21698;DHT22;11010;49.548;11.926;2023-05-10T06:11:43;14.40;99.90
21698;DHT22;11010;49.548;11.926;2023-05-10T06:14:10;14.50;99.90
21698;DHT22;11010;49.548;11.926;2023-05-10T06:16:37;14.60;99.90
21698;DHT22;11010;49.548;11.926;2023-05-10T06:19:04;14.60;99.90
21698;DHT22;11010;49.548;11.926;2023-05-10T06:21:31;14.60;99.90
21698;DHT22;11010;49.548;11.926;2023-05-10T06:23:59;14.60;99.90
21698;DHT22;11010;49.548;11.926;2023-05-10T06:26:26;14.50;99.90
21698;DHT22;11010;49.548;11.926;2023-05-10T06:28:53;14.50;99.90
21698;DHT22;11010;49.548;11.926;2023-05-10T06:31:20;14.50;99.90
21698;DHT22;11010;49.548;11.926;2023-05-10T06:33:47;14.50;99.90
21698;DHT22;11010;49.548;11.926;2023-05-10T06:36:14;14.60;99.90
21698;DHT22;11010;49.548;11.926;2023-05-10T06:38:42;14.60;99.90
21698;DHT22;11010;49.548;11.926;2023-05-10T06:41:09;14.50;99.90
21698;DHT22;11010;49.548;11.926;2023-05-10T06:43:36;14.60;99.90
21698;DHT22;11010;49.548;11.926;2023-05-10T06:46:06;14.60;99.90
21698;DHT22;11010;49.548;11.926;2023-05-10T06:48:34;14.50;99.90
21698;DHT22;11010;49.548;11.926;2023-05-10T06:51:01;14.50;99.90
21698;DHT22;11010;49.548;11.926;2023-05-10T06:53:28;14.50;99.90
21698;DHT22;11010;49.548;11.926;2023-05-10T06:55:55;14.50;99.90
21698;DHT22;11010;49.548;11.926;2023-05-10T06:58:22;14.50;99.90
21698;DHT22;11010;49.548;11.926;2023-05-10T07:00:50;14.50;99.90
21698;DHT22;11010;49.548;11.926;2023-05-10T07:03:17;14.50;99.90
21698;DHT22;11010;49.548;11.926;2023-05-10T07:05:44;14.50;99.90
21698;DHT22;11010;49.548;11.926;2023-05-10T07:08:11;14.50;99.90
21698;DHT22;11010;49.548;11.926;2023-05-10T07:10:38;14.40;99.90
21698;DHT22;11010;49.548;11.926;2023-05-10T07:13:05;14.50;99.90
21698;DHT22;11010;49.548;11.926;2023-05-10T07:15:32;14.50;99.90
21698;DHT22;11010;49.548;11.926;2023-05-10T07:18:00;14.40;99.90
21698;DHT22;11010;49.548;11.926;2023-05-10T07:20:27;14.50;99.90
21698;DHT22;11010;49.548;11.926;2023-05-10T07:22:54;13.90;99.90
21698;DHT22;11010;49.548;11.926;2023-05-10T07:25:21;14.00;99.90
21698;DHT22;11010;49.548;11.926;2023-05-10T07:27:48;14.30;99.90
21698;DHT22;11010;49.548;11.926;2023-05-10T07:30:15;14.30;99.90
21698;DHT22;11010;49.548;11.926;2023-05-10T07:32:44;14.40;99.90
21698;DHT22;11010;49.548;11.926;2023-05-10T07:35:11;14.50;99.90
21698;DHT22;11010;49.548;11.926;2023-05-10T07:37:38;14.60;99.90
21698;DHT22;11010;49.548;11.926;2023-05-10T07:40:06;14.60;99.90
21698;DHT22;11010;49.548;11.926;2023-05-10T07:42:33;14.50;99.90
21698;DHT22;11010;49.548;11.926;2023-05-10T07:45:00;14.60;99.90
21698;DHT22;11010;49.548;11.926;2023-05-10T07:47:27;14.60;99.90
21698;DHT22;11010;49.548;11.926;2023-05-10T07:49:54;14.70;99.90
21698;DHT22;11010;49.548;11.926;2023-05-10T07:52:22;14.60;99.90
21698;DHT22;11010;49.548;11.926;2023-05-10T07:54:49;14.60;99.90
21698;DHT22;11010;49.548;11.926;2023-05-10T07:57:16;14.50;99.90
21698;DHT22;11010;49.548;11.926;2023-05-10T07:59:44;14.70;99.90
21698;DHT22;11010;49.548;11.926;2023-05-10T08:02:12;14.70;99.90
21698;DHT22;11010;49.548;11.926;2023-05-10T08:04:39;14.70;99.90
21698;DHT22;11010;49.548;11.926;2023-05-10T08:07:06;14.50;99.90
21698;DHT22;11010;49.548;11.926;2023-05-10T08:09:34;14.70;99.90
21698;DHT22;11010;49.548;11.926;2023-05-10T08:12:01;14.60;99.90
21698;DHT22;11010;49.548;11.926;2023-05-10T08:14:29;14.60;99.90
21698;DHT22;11010;49.548;11.926;2023-05-10T08:16:56;14.80;99.90
21698;DHT22;11010;49.548;11.926;2023-05-10T08:19:23;14.80;99.90
21698;DHT22;11010;49.548;11.926;2023-05-10T08:21:50;14.60;99.90
21698;DHT22;11010;49.548;11.926;2023-05-10T08:24:17;14.60;99.90
21698;DHT22;11010;49.548;11.926;2023-05-10T08:26:44;14.70;99.90
21698;DHT22;11010;49.548;11.926;2023-05-10T08:29:11;14.40;99.90
21698;DHT22;11010;49.548;11.926;2023-05-10T08:31:39;14.20;99.90
21698;DHT22;11010;49.548;11.926;2023-05-10T08:34:06;14.40;99.90
21698;DHT22;11010;49.548;11.926;2023-05-10T08:36:33;14.40;99.90
21698;DHT22;11010;49.548;11.926;2023-05-10T08:39:00;14.30;99.90
21698;DHT22;11010;49.548;11.926;2023-05-10T08:41:28;14.00;99.90
21698;DHT22;11010;49.548;11.926;2023-05-10T08:43:56;14.00;99.90
21698;DHT22;11010;49.548;11.926;2023-05-10T08:46:25;14.30;99.90
21698;DHT22;11010;49.548;11.926;2023-05-10T08:48:53;14.40;99.90
21698;DHT22;11010;49.548;11.926;2023-05-10T08:51:25;14.40;99.90
21698;DHT22;11010;49.548;11.926;2023-05-10T08:53:53;14.40;99.90
21698;DHT22;11010;49.548;11.926;2023-05-10T08:56:21;14.60;99.90
21698;DHT22;11010;49.548;11.926;2023-05-10T08:58:48;14.80;99.90
21698;DHT22;11010;49.548;11.926;2023-05-10T09:01:18;14.80;99.90
21698;DHT22;11010;49.548;11.926;2023-05-10T09:03:46;14.90;99.90
21698;DHT22;11010;49.548;11.926;2023-05-10T09:06:14;14.80;99.90
21698;DHT22;11010;49.548;11.926;2023-05-10T09:08:42;14.90;99.90
21698;DHT22;11010;49.548;11.926;2023-05-10T09:11:11;14.80;99.90
21698;DHT22;11010;49.548;11.926;2023-05-10T09:13:38;14.90;99.90
21698;DHT22;11010;49.548;11.926;2023-05-10T09:16:06;14.60;99.90
21698;DHT22;11010;49.548;11.926;2023-05-10T09:18:46;14.70;99.90
21698;DHT22;11010;49.548;11.926;2023-05-10T09:21:13;14.50;99.90
21698;DHT22;11010;49.548;11.926;2023-05-10T09:23:44;14.60;99.90
21698;DHT22;11010;49.548;11.926;2023-05-10T09:26:14;14.60;99.90
21698;DHT22;11010;49.548;11.926;2023-05-10T09:28:56;14.90;99.90
21698;DHT22;11010;49.548;11.926;2023-05-10T09:31:23;14.90;99.90
21698;DHT22;11010;49.548;11.926;2023-05-10T09:33:53;15.00;99.90
21698;DHT22;11010;49.548;11.926;2023-05-10T09:36:20;15.10;99.90
21698;DHT22;11010;49.548;11.926;2023-05-10T09:38:49;15.30;99.90
21698;DHT22;11010;49.548;11.926;2023-05-10T09:41:23;15.30;99.90
21698;DHT22;11010;49.548;11.926;2023-05-10T09:43:55;15.00;99.90
21698;DHT22;11010;49.548;11.926;2023-05-10T09:46:23;14.90;99.90
21698;DHT22;11010;49.548;11.926;2023-05-10T09:48:50;14.90;99.90
21698;DHT22;11010;49.548;11.926;2023-05-10T09:51:23;15.10;99.90
21698;DHT22;11010;49.548;11.926;2023-05-10T09:54:09;15.00;99.90
21698;DHT22;11010;49.548;11.926;2023-05-10T09:56:38;14.80;99.90
21698;DHT22;11010;49.548;11.926;2023-05-10T09:59:11;15.00;99.90
21698;DHT22;11010;49.548;11.926;2023-05-10T10:01:39;15.30;99.90
21698;DHT22;11010;49.548;11.926;2023-05-10T10:04:10;15.10;99.90
21698;DHT22;11010;49.548;11.926;2023-05-10T10:06:39;15.00;99.90
21698;DHT22;11010;49.548;11.926;2023-05-10T10:09:07;15.00;99.90
21698;DHT22;11010;49.548;11.926;2023-05-10T10:11:36;14.90;99.90
21698;DHT22;11010;49.548;11.926;2023-05-10T10:14:04;15.20;99.90
21698;DHT22;11010;49.548;11.926;2023-05-10T10:16:32;15.40;99.90
21698;DHT22;11010;49.548;11.926;2023-05-10T10:18:59;15.60;99.90
21698;DHT22;11010;49.548;11.926;2023-05-10T10:21:27;15.50;99.90
21698;DHT22;11010;49.548;11.926;2023-05-10T10:23:54;15.50;99.90
21698;DHT22;11010;49.548;11.926;2023-05-10T10:26:22;15.40;99.90
21698;DHT22;11010;49.548;11.926;2023-05-10T10:30:11;15.10;99.90
21698;DHT22;11010;49.548;11.926;2023-05-10T10:32:32;15.30;99.90
21698;DHT22;11010;49.548;11.926;2023-05-10T10:35:00;15.50;99.90
21698;DHT22;11010;49.548;11.926;2023-05-10T10:37:44;15.60;99.90
21698;DHT22;11010;49.548;11.926;2023-05-10T10:40:32;15.60;99.90
21698;DHT22;11010;49.548;11.926;2023-05-10T10:43:26;16.00;99.90
21698;DHT22;11010;49.548;11.926;2023-05-10T10:48:41;16.50;99.90
21698;DHT22;11010;49.548;11.926;2023-05-10T10:51:08;16.70;99.90
21698;DHT22;11010;49.548;11.926;2023-05-10T10:53:38;16.70;99.90
21698;DHT22;11010;49.548;11.926;2023-05-10T10:56:08;17.00;99.90
21698;DHT22;11010;49.548;11.926;2023-05-10T10:58:38;17.10;99.90
21698;DHT22;11010;49.548;11.926;2023-05-10T11:01:15;16.70;99.90
21698;DHT22;11010;49.548;11.926;2023-05-10T11:06:42;16.60;99.90
21698;DHT22;11010;49.548;11.926;2023-05-10T11:09:11;16.60;99.90
21698;DHT22;11010;49.548;11.926;2023-05-10T11:11:54;16.70;99.90
21698;DHT22;11010;49.548;11.926;2023-05-10T11:14:22;16.50;99.90
21698;DHT22;11010;49.548;11.926;2023-05-10T11:16:49;16.50;99.90
21698;DHT22;11010;49.548;11.926;2023-05-10T11:19:19;16.40;99.90
21698;DHT22;11010;49.548;11.926;2023-05-10T11:24:32;16.00;99.90
21698;DHT22;11010;49.548;11.926;2023-05-10T11:27:00;15.90;99.90
21698;DHT22;11010;49.548;11.926;2023-05-10T11:29:27;15.80;99.90
21698;DHT22;11010;49.548;11.926;2023-05-10T11:31:58;15.80;99.90
21698;DHT22;11010;49.548;11.926;2023-05-10T11:34:27;15.90;99.90
21698;DHT22;11010;49.548;11.926;2023-05-10T11:36:55;15.80;99.90
21698;DHT22;11010;49.548;11.926;2023-05-10T11:39:27;16.00;99.90
21698;DHT22;11010;49.548;11.926;2023-05-10T11:41:55;16.20;99.90
21698;DHT22;11010;49.548;11.926;2023-05-10T11:44:22;16.30;99.90
21698;DHT22;11010;49.548;11.926;2023-05-10T11:46:49;16.50;99.90
21698;DHT22;11010;49.548;11.926;2023-05-10T11:49:17;16.60;99.90
21698;DHT22;11010;49.548;11.926;2023-05-10T11:51:44;16.60;99.90
21698;DHT22;11010;49.548;11.926;2023-05-10T11:54:11;16.60;99.90
21698;DHT22;11010;49.548;11.926;2023-05-10T11:56:40;16.40;99.90
21698;DHT22;11010;49.548;11.926;2023-05-10T11:59:07;16.30;99.90
21698;DHT22;11010;49.548;11.926;2023-05-10T12:01:35;16.30;99.90
21698;DHT22;11010;49.548;11.926;2023-05-10T12:04:02;16.10;99.90
21698;DHT22;11010;49.548;11.926;2023-05-10T12:06:31;16.00;99.90
21698;DHT22;11010;49.548;11.926;2023-05-10T12:09:01;16.00;99.90
21698;DHT22;11010;49.548;11.926;2023-05-10T12:11:32;16.00;99.90
21698;DHT22;11010;49.548;11.926;2023-05-10T12:13:59;16.10;99.90
21698;DHT22;11010;49.548;11.926;2023-05-10T12:16:29;16.10;99.90
21698;DHT22;11010;49.548;11.926;2023-05-10T12:18:58;16.10;99.90
21698;DHT22;11010;49.548;11.926;2023-05-10T12:21:27;16.20;99.90
21698;DHT22;11010;49.548;11.926;2023-05-10T12:23:59;16.70;99.90
21698;DHT22;11010;49.548;11.926;2023-05-10T12:26:28;17.00;99.90
21698;DHT22;11010;49.548;11.926;2023-05-10T12:29:15;17.10;99.90
21698;DHT22;11010;49.548;11.926;2023-05-10T12:31:56;17.20;99.90
21698;DHT22;11010;49.548;11.926;2023-05-10T12:36:59;17.30;99.90
21698;DHT22;11010;49.548;11.926;2023-05-10T12:39:37;17.40;99.90
21698;DHT22;11010;49.548;11.926;2023-05-10T12:42:05;17.40;99.90
21698;DHT22;11010;49.548;11.926;2023-05-10T12:44:32;17.40;99.90
21698;DHT22;11010;49.548;11.926;2023-05-10T12:46:59;17.50;99.90
21698;DHT22;11010;49.548;11.926;2023-05-10T12:49:26;17.50;99.90
21698;DHT22;11010;49.548;11.926;2023-05-10T12:51:53;17.60;99.90
21698;DHT22;11010;49.548;11.926;2023-05-10T12:54:20;17.60;99.90
21698;DHT22;11010;49.548;11.926;2023-05-10T12:56:47;17.60;99.90
21698;DHT22;11010;49.548;11.926;2023-05-10T12:59:14;17.60;99.90
21698;DHT22;11010;49.548;11.926;2023-05-10T13:01:41;17.50;99.90
21698;DHT22;11010;49.548;11.926;2023-05-10T13:04:09;17.50;99.90
21698;DHT22;11010;49.548;11.926;2023-05-10T13:06:36;17.40;99.90
21698;DHT22;11010;49.548;11.926;2023-05-10T13:09:03;17.30;99.90
21698;DHT22;11010;49.548;11.926;2023-05-10T13:11:31;17.30;99.90
21698;DHT22;11010;49.548;11.926;2023-05-10T13:13:58;17.30;99.90
21698;DHT22;11010;49.548;11.926;2023-05-10T13:16:25;17.00;99.90
21698;DHT22;11010;49.548;11.926;2023-05-10T13:18:52;16.70;99.90
21698;DHT22;11010;49.548;11.926;2023-05-10T13:21:19;16.50;99.90
21698;DHT22;11010;49.548;11.926;2023-05-10T13:23:47;16.40;99.90
21698;DHT22;11010;49.548;11.926;2023-05-10T13:26:14;16.30;99.90
21698;DHT22;11010;49.548;11.926;2023-05-10T13:28:41;16.40;99.90
21698;DHT22;11010;49.548;11.926;2023-05-10T13:31:08;16.40;99.90
21698;DHT22;11010;49.548;11.926;2023-05-10T13:33:35;16.40;99.90
21698;DHT22;11010;49.548;11.926;2023-05-10T13:36:02;16.40;99.90
21698;DHT22;11010;49.548;11.926;2023-05-10T13:38:29;16.50;99.90
21698;DHT22;11010;49.548;11.926;2023-05-10T13:40:56;16.50;99.90
21698;DHT22;11010;49.548;11.926;2023-05-10T13:43:24;16.60;99.90
21698;DHT22;11010;49.548;11.926;2023-05-10T13:45:51;16.60;99.90
21698;DHT22;11010;49.548;11.926;2023-05-10T13:48:18;16.50;99.90
21698;DHT22;11010;49.548;11.926;2023-05-10T13:50:46;16.40;99.90
21698;DHT22;11010;49.548;11.926;2023-05-10T13:53:13;16.50;99.90
21698;DHT22;11010;49.548;11.926;2023-05-10T13:55:41;16.60;99.90
21698;DHT22;11010;49.548;11.926;2023-05-10T13:58:08;16.60;99.90
21698;DHT22;11010;49.548;11.926;2023-05-10T14:00:35;16.60;99.90
21698;DHT22;11010;49.548;11.926;2023-05-10T14:03:02;16.60;99.90
21698;DHT22;11010;49.548;11.926;2023-05-10T14:05:31;16.60;99.90
21698;DHT22;11010;49.548;11.926;2023-05-10T14:07:58;16.60;99.90
21698;DHT22;11010;49.548;11.926;2023-05-10T14:10:26;16.60;99.90
21698;DHT22;11010;49.548;11.926;2023-05-10T14:12:53;16.50;99.90
21698;DHT22;11010;49.548;11.926;2023-05-10T14:15:20;16.50;99.90
21698;DHT22;11010;49.548;11.926;2023-05-10T14:17:47;16.40;99.90
21698;DHT22;11010;49.548;11.926;2023-05-10T14:20:14;16.40;99.90
21698;DHT22;11010;49.548;11.926;2023-05-10T14:22:41;16.40;99.90
21698;DHT22;11010;49.548;11.926;2023-05-10T14:25:09;16.20;99.90
21698;DHT22;11010;49.548;11.926;2023-05-10T14:27:36;16.00;99.90
21698;DHT22;11010;49.548;11.926;2023-05-10T14:30:03;15.90;99.90
21698;DHT22;11010;49.548;11.926;2023-05-10T14:32:30;15.90;99.90
21698;DHT22;11010;49.548;11.926;2023-05-10T14:34:58;15.90;99.90
21698;DHT22;11010;49.548;11.926;2023-05-10T14:37:26;15.80;99.90
21698;DHT22;11010;49.548;11.926;2023-05-10T14:39:53;15.70;99.90
21698;DHT22;11010;49.548;11.926;2023-05-10T14:42:20;15.60;99.90
21698;DHT22;11010;49.548;11.926;2023-05-10T14:44:48;15.50;99.90
21698;DHT22;11010;49.548;11.926;2023-05-10T14:47:15;15.60;99.90
21698;DHT22;11010;49.548;11.926;2023-05-10T14:49:42;15.60;99.90
21698;DHT22;11010;49.548;11.926;2023-05-10T14:52:09;15.60;99.90
21698;DHT22;11010;49.548;11.926;2023-05-10T14:54:36;15.70;99.90
21698;DHT22;11010;49.548;11.926;2023-05-10T14:57:03;15.60;99.90
21698;DHT22;11010;49.548;11.926;2023-05-10T14:59:31;15.50;99.90
21698;DHT22;11010;49.548;11.926;2023-05-10T15:01:59;15.40;99.90
21698;DHT22;11010;49.548;11.926;2023-05-10T15:04:26;15.30;99.90
21698;DHT22;11010;49.548;11.926;2023-05-10T15:06:55;15.40;99.90
21698;DHT22;11010;49.548;11.926;2023-05-10T15:09:26;15.50;99.90
21698;DHT22;11010;49.548;11.926;2023-05-10T15:11:55;15.50;99.90
21698;DHT22;11010;49.548;11.926;2023-05-10T15:14:23;15.50;99.90
21698;DHT22;11010;49.548;11.926;2023-05-10T15:16:50;15.60;99.90
21698;DHT22;11010;49.548;11.926;2023-05-10T15:19:17;15.70;99.90
21698;DHT22;11010;49.548;11.926;2023-05-10T15:21:44;15.70;99.90
21698;DHT22;11010;49.548;11.926;2023-05-10T15:24:11;15.70;99.90
21698;DHT22;11010;49.548;11.926;2023-05-10T15:26:38;15.70;99.90
21698;DHT22;11010;49.548;11.926;2023-05-10T15:29:05;15.70;99.90
21698;DHT22;11010;49.548;11.926;2023-05-10T15:31:32;15.70;99.90
21698;DHT22;11010;49.548;11.926;2023-05-10T15:34:02;15.70;99.90
21698;DHT22;11010;49.548;11.926;2023-05-10T15:36:31;15.70;99.90
21698;DHT22;11010;49.548;11.926;2023-05-10T15:38:58;15.70;99.90
21698;DHT22;11010;49.548;11.926;2023-05-10T15:41:25;15.70;99.90
21698;DHT22;11010;49.548;11.926;2023-05-10T15:43:53;15.60;99.90
21698;DHT22;11010;49.548;11.926;2023-05-10T15:46:20;15.60;99.90
21698;DHT22;11010;49.548;11.926;2023-05-10T15:48:48;15.70;99.90
21698;DHT22;11010;49.548;11.926;2023-05-10T15:51:15;15.80;99.90
21698;DHT22;11010;49.548;11.926;2023-05-10T15:53:42;15.90;99.90